Time;durP1;ratioP1;P1;durP2;ratioP2;P2;SDS_P1;SDS_P2;PMS_P1;PMS_P2;Temp;Humidity;BMP_temperature;BMP_pressure;BME280_temperature;BME280_humidity;BME280_pressure;Samples;Min_cycle;Max_cycle;Signal;HPM_P1;HPM_P2
2022/03/27 00:01:07;;;;;;;24.38;17.65;;;;;;;5.64;67.53;101410.50;5032793;28;20028;-73
2022/03/27 00:03:33;;;;;;;26.42;17.83;;;;;;;5.61;66.92;101401.75;5033219;28;20048;-73
2022/03/27 00:05:58;;;;;;;28.65;19.73;;;;;;;5.86;66.91;101436.78;5033431;28;20546;-73
2022/03/27 00:08:24;;;;;;;26.77;18.08;;;;;;;5.76;66.63;101410.50;5033384;28;20116;-73
2022/03/27 00:13:33;;;;;;;26.60;18.05;;;;;;;5.77;65.88;101380.63;5033486;28;20043;-73
2022/03/27 00:15:58;;;;;;;24.52;17.63;;;;;;;5.93;66.07;101409.16;5033209;28;20404;-73
2022/03/27 00:18:24;;;;;;;25.10;18.42;;;;;;;5.80;65.99;101370.63;5032952;28;20087;-73
2022/03/27 00:20:53;;;;;;;27.75;18.52;;;;;;;5.96;66.13;101417.06;5032914;28;20034;-73
2022/03/27 00:23:18;;;;;;;26.63;17.95;;;;;;;5.97;66.38;101423.97;5033224;28;20033;-73
2022/03/27 00:25:45;;;;;;;28.40;18.98;;;;;;;5.73;65.96;101370.97;5033341;28;20565;-73
2022/03/27 00:28:11;;;;;;;29.40;18.95;;;;;;;5.92;65.65;101402.25;5032771;28;20029;-73
2022/03/27 00:30:38;;;;;;;27.42;18.42;;;;;;;5.94;65.63;101410.03;5032039;28;20064;-73
2022/03/27 00:33:04;;;;;;;28.63;19.08;;;;;;;5.72;65.78;101395.72;5031805;28;20026;-73
2022/03/27 00:35:30;;;;;;;23.88;17.77;;;;;;;5.61;66.23;101374.44;5031013;28;20033;-73
2022/03/27 00:37:55;;;;;;;25.88;17.40;;;;;;;5.76;66.65;101415.63;5030421;28;20021;-73
2022/03/27 00:40:20;;;;;;;26.80;17.42;;;;;;;5.61;66.95;101409.44;5047695;28;20420;-73
2022/03/27 00:42:46;;;;;;;28.55;16.98;;;;;;;5.41;67.97;101397.72;5047496;28;20120;-73
2022/03/27 00:45:12;;;;;;;26.52;16.90;;;;;;;5.18;68.54;101369.69;5048611;28;20067;-73
2022/03/27 00:47:38;;;;;;;26.85;17.15;;;;;;;5.27;68.51;101412.06;5049321;28;20041;-73
2022/03/27 00:50:04;;;;;;;24.52;16.80;;;;;;;5.17;69.02;101405.38;5048653;28;20033;-73
2022/03/27 00:52:30;;;;;;;21.57;15.27;;;;;;;5.14;68.97;101403.50;5048521;28;20469;-71
2022/03/27 00:54:56;;;;;;;23.73;16.03;;;;;;;5.16;69.34;101409.63;5048698;28;20036;-72
2022/03/27 00:57:21;;;;;;;21.37;16.47;;;;;;;5.23;69.19;101416.06;5031729;28;20076;-73
2022/03/27 00:59:47;;;;;;;21.27;15.97;;;;;;;5.17;69.00;101400.25;5048794;28;20476;-72
2022/03/27 01:02:14;;;;;;;25.87;15.70;;;;;;;5.08;69.19;101380.00;5048659;28;20032;-73
2022/03/27 01:04:43;;;;;;;22.27;15.63;;;;;;;4.97;69.89;101396.22;5048436;28;20490;-72
2022/03/27 01:07:12;;;;;;;23.20;15.65;;;;;;;4.86;70.77;101401.44;5048712;28;20037;-72
2022/03/27 01:09:38;;;;;;;22.27;16.15;;;;;;;4.73;71.26;101387.63;5032647;28;20043;-73
2022/03/27 01:12:22;;;;;;;22.80;15.80;;;;;;;4.73;71.69;101401.28;5034049;28;20041;-73
2022/03/27 01:14:52;;;;;;;20.80;15.63;;;;;;;4.54;72.65;101401.56;5031385;28;20501;-73
2022/03/27 01:17:20;;;;;;;22.23;15.50;;;;;;;4.45;73.29;101396.66;5030762;28;20048;-73
2022/03/27 01:19:52;;;;;;;22.97;15.67;;;;;;;4.28;73.94;101385.13;5031089;28;20088;-74
2022/03/27 01:22:19;;;;;;;22.67;16.33;;;;;;;4.12;74.24;101351.50;5032217;28;20054;-73
2022/03/27 01:24:45;;;;;;;25.40;15.60;;;;;;;4.36;74.51;101394.28;5031727;28;20516;-74
2022/03/27 01:27:11;;;;;;;25.53;16.90;;;;;;;4.30;74.07;101367.34;5031776;28;20567;-73
2022/03/27 01:29:37;;;;;;;23.80;15.33;;;;;;;4.43;74.26;101379.41;5031361;28;20109;-73
2022/03/27 01:32:04;;;;;;;22.53;15.17;;;;;;;4.48;74.22;101383.22;5032135;28;20061;-73
2022/03/27 01:34:31;;;;;;;21.67;15.43;;;;;;;4.49;74.84;101391.00;5031743;28;20028;-75
2022/03/27 01:37:00;;;;;;;19.87;15.10;;;;;;;4.51;74.57;101394.56;5031992;28;20036;-74
2022/03/27 01:39:25;;;;;;;23.40;15.05;;;;;;;4.38;74.84;101395.28;5030146;28;20061;-73
2022/03/27 01:41:51;;;;;;;23.57;15.70;;;;;;;4.35;74.90;101397.59;5029579;28;20076;-73
2022/03/27 01:44:17;;;;;;;23.53;15.93;;;;;;;4.15;75.66;101390.03;5030578;28;20481;-73
2022/03/27 01:46:44;;;;;;;22.60;15.37;;;;;;;4.15;76.01;101383.28;5030692;28;20507;-74
2022/03/27 01:49:12;;;;;;;24.63;16.03;;;;;;;4.31;75.81;101400.72;5030869;28;20025;-73
2022/03/27 01:51:39;;;;;;;21.60;14.37;;;;;;;4.31;76.00;101387.00;5030574;28;20084;-72
2022/03/27 01:54:05;;;;;;;23.83;15.87;;;;;;;4.24;75.66;101383.09;5030885;28;20108;-73
2022/03/27 01:56:31;;;;;;;23.70;15.17;;;;;;;4.28;75.82;101397.03;5030715;28;20146;-73
2022/03/27 01:58:56;;;;;;;24.77;16.30;;;;;;;4.24;76.39;101393.34;5030153;28;20492;-72
2022/03/27 02:01:23;;;;;;;21.80;15.30;;;;;;;4.17;76.05;101389.38;5030413;28;20108;-73
2022/03/27 02:03:49;;;;;;;24.83;15.67;;;;;;;4.05;76.35;101376.56;5030312;28;20037;-73
2022/03/27 02:06:16;;;;;;;24.97;15.67;;;;;;;4.12;76.79;101388.16;5030398;28;20033;-74
2022/03/27 02:08:45;;;;;;;21.70;16.40;;;;;;;4.15;76.18;101387.50;5030656;28;20546;-71
2022/03/27 02:11:13;;;;;;;23.25;15.77;;;;;;;3.76;76.24;101330.84;5029821;28;20033;-73
2022/03/27 02:13:38;;;;;;;21.90;15.67;;;;;;;4.01;77.03;101384.78;5030329;28;20116;-72
2022/03/27 02:16:04;;;;;;;24.40;15.47;;;;;;;3.82;77.99;101386.66;5030215;28;20469;-69
2022/03/27 02:18:30;;;;;;;26.20;16.20;;;;;;;3.75;78.61;101405.72;5030499;28;20564;-75
2022/03/27 02:20:58;;;;;;;25.43;15.60;;;;;;;3.63;78.84;101391.97;5029778;28;20393;-78
2022/03/27 02:23:24;;;;;;;25.80;17.23;;;;;;;3.72;78.96;101391.00;5027881;28;20091;-75
2022/03/27 02:25:50;;;;;;;21.73;15.57;;;;;;;3.68;79.53;101394.09;5027196;28;20378;-76
2022/03/27 02:28:16;;;;;;;23.33;16.37;;;;;;;3.48;80.20;101371.22;5030353;28;20412;-76
2022/03/27 02:30:42;;;;;;;27.00;16.47;;;;;;;3.21;81.74;101373.31;5029910;28;20026;-77
2022/03/27 02:33:08;;;;;;;21.47;16.33;;;;;;;2.95;82.63;101350.78;5029931;28;20025;-77
2022/03/27 02:35:34;;;;;;;24.20;16.73;;;;;;;2.95;82.33;101351.66;5029827;28;20030;-76
2022/03/27 02:38:04;;;;;;;30.17;17.50;;;;;;;3.13;82.53;101393.13;5029804;28;20473;-77
2022/03/27 02:40:31;;;;;;;26.97;17.33;;;;;;;3.03;82.80;101385.47;5028956;28;20013;-77
2022/03/27 02:42:59;;;;;;;24.57;16.87;;;;;;;3.04;83.49;101400.91;5028502;28;20117;-77
2022/03/27 02:45:24;;;;;;;25.93;17.13;;;;;;;2.99;84.69;101401.28;5029944;28;20075;-78
2022/03/27 02:47:50;;;;;;;26.50;17.47;;;;;;;2.95;84.68;101387.38;5028329;28;20025;-79
2022/03/27 02:50:15;;;;;;;27.23;17.13;;;;;;;2.94;84.10;101374.50;5029909;28;20029;-78
2022/03/27 02:52:41;;;;;;;26.87;17.80;;;;;;;3.08;83.50;101391.84;5028470;28;20022;-78
2022/03/27 02:55:06;;;;;;;25.87;16.33;;;;;;;2.97;83.90;101385.84;5011692;28;20120;-80
2022/03/27 02:57:32;;;;;;;29.47;18.83;;;;;;;2.69;84.50;101360.63;5029506;28;20076;-80
2022/03/27 02:59:58;;;;;;;26.17;17.93;;;;;;;2.89;84.73;101387.78;5029486;28;20022;-78
2022/03/27 03:02:24;;;;;;;25.97;18.13;;;;;;;2.95;85.20;101400.13;5028178;28;20128;-78
2022/03/27 03:04:49;;;;;;;27.67;18.37;;;;;;;2.89;85.06;101377.59;5029261;28;20528;-77
2022/03/27 03:07:15;;;;;;;25.23;17.90;;;;;;;2.94;84.72;101375.41;5028161;28;20025;-76
2022/03/27 03:09:41;;;;;;;25.33;16.93;;;;;;;3.02;83.84;101384.56;5028505;28;20428;-77
2022/03/27 03:12:07;;;;;;;25.43;17.60;;;;;;;3.07;84.39;101401.13;5028416;28;20385;-75
2022/03/27 03:14:33;;;;;;;25.43;17.67;;;;;;;2.92;84.25;101384.59;5026950;28;20791;-75
2022/03/27 03:17:00;;;;;;;26.07;17.13;;;;;;;3.12;84.06;101409.19;5029964;28;20046;-73
2022/03/27 03:19:26;;;;;;;27.53;16.83;;;;;;;2.92;84.78;101393.13;5030370;28;20113;-81
2022/03/27 03:21:51;;;;;;;27.80;17.87;;;;;;;2.94;85.80;101410.22;5028632;28;20104;-76
2022/03/27 03:24:17;;;;;;;32.27;17.50;;;;;;;2.98;86.20;101420.81;5030360;28;20135;-76
2022/03/27 03:26:42;;;;;;;25.13;17.33;;;;;;;2.93;86.47;101406.78;5028942;28;20481;-77
2022/03/27 03:29:08;;;;;;;31.27;18.43;;;;;;;2.81;87.58;101413.41;5030458;28;20056;-73
2022/03/27 03:31:33;;;;;;;24.60;17.57;;;;;;;2.74;88.21;101418.00;5029739;28;20499;-74
2022/03/27 03:33:59;;;;;;;25.03;17.10;;;;;;;2.59;88.63;101404.88;5030252;28;20034;-75
2022/03/27 03:36:24;;;;;;;26.63;17.50;;;;;;;2.64;88.94;101419.63;5033881;28;20040;-74
2022/03/27 03:38:50;;;;;;;27.60;18.87;;;;;;;2.50;90.05;101423.59;5033573;28;20099;-74
2022/03/27 03:41:16;;;;;;;31.00;20.20;;;;;;;2.44;90.15;101408.66;5032426;28;20022;-77
2022/03/27 03:43:42;;;;;;;28.20;18.27;;;;;;;2.48;90.26;101420.00;5033099;28;20117;-75
2022/03/27 03:46:07;;;;;;;30.53;19.17;;;;;;;2.17;90.69;101382.63;5033427;28;20108;-75
2022/03/27 03:48:32;;;;;;;28.27;18.67;;;;;;;2.35;91.06;101420.63;5033253;28;20026;-76
2022/03/27 03:50:58;;;;;;;29.77;19.00;;;;;;;2.38;91.20;101411.59;5033021;28;20501;-76
2022/03/27 03:53:24;;;;;;;28.90;18.57;;;;;;;2.10;91.67;101386.28;5030140;28;20047;-77
2022/03/27 03:55:50;;;;;;;28.70;19.50;;;;;;;2.22;91.78;101406.84;5032418;28;20060;-77
2022/03/27 03:58:15;;;;;;;28.60;17.73;;;;;;;2.23;91.69;101400.06;5033726;28;20500;-76
2022/03/27 04:00:42;;;;;;;30.70;19.37;;;;;;;2.30;91.70;101409.16;5033370;28;20029;-79
2022/03/27 04:03:09;;;;;;;31.47;19.47;;;;;;;2.23;92.67;101400.97;5033490;28;20028;-79
2022/03/27 04:05:35;;;;;;;27.37;18.13;;;;;;;2.26;92.54;101413.97;5033398;28;20036;-78
2022/03/27 04:08:01;;;;;;;29.03;19.63;;;;;;;2.09;93.31;101381.97;5033308;28;20091;-79
2022/03/27 04:10:27;;;;;;;25.60;18.67;;;;;;;2.18;93.59;101437.00;5033513;28;20041;-78
2022/03/27 04:12:53;;;;;;;29.50;18.10;;;;;;;2.25;92.95;101441.88;5033372;28;20029;-77
2022/03/27 04:15:18;;;;;;;27.03;18.43;;;;;;;2.27;93.56;101417.44;5031996;28;20033;-78
2022/03/27 04:17:45;;;;;;;28.60;18.90;;;;;;;2.32;93.23;101449.28;5032937;28;20488;-77
2022/03/27 04:20:14;;;;;;;31.63;19.73;;;;;;;2.30;93.86;101443.16;5033071;28;20029;-79
2022/03/27 04:22:41;;;;;;;28.83;18.98;;;;;;;2.42;91.94;101462.06;5032789;28;20481;-74
2022/03/27 04:25:07;;;;;;;32.33;21.37;;;;;;;2.46;91.83;101434.28;5033160;28;20029;-74
2022/03/27 04:27:33;;;;;;;30.23;19.73;;;;;;;2.63;91.82;101440.78;5032892;28;20091;-74
2022/03/27 04:29:59;;;;;;;30.17;18.60;;;;;;;2.72;91.24;101444.13;5033098;28;20100;-74
2022/03/27 04:32:24;;;;;;;30.77;20.20;;;;;;;2.71;90.97;101457.66;5028900;28;20528;-75
2022/03/27 04:34:50;;;;;;;31.43;19.90;;;;;;;2.39;91.45;101421.03;5032159;28;20540;-74
2022/03/27 04:37:16;;;;;;;26.70;19.07;;;;;;;2.59;91.57;101450.75;5032071;28;20074;-74
2022/03/27 04:39:42;;;;;;;31.20;19.73;;;;;;;2.54;91.90;101451.09;5031869;28;20485;-74
2022/03/27 04:42:09;;;;;;;28.97;19.80;;;;;;;2.57;91.74;101461.59;5032253;28;20083;-74
2022/03/27 04:44:34;;;;;;;31.03;20.80;;;;;;;2.47;92.50;101453.88;5032876;28;20034;-73
2022/03/27 04:47:00;;;;;;;33.33;21.13;;;;;;;2.33;93.54;101456.19;5031244;28;20036;-74
2022/03/27 04:49:25;;;;;;;28.13;18.77;;;;;;;2.11;95.20;101438.16;5032673;28;20480;-73
2022/03/27 04:51:51;;;;;;;33.20;20.33;;;;;;;2.24;95.94;101455.38;5032452;28;20029;-73
2022/03/27 04:54:16;;;;;;;29.17;20.83;;;;;;;2.33;95.80;101466.38;5032784;28;20029;-73
2022/03/27 04:56:41;;;;;;;33.23;20.67;;;;;;;2.43;95.80;101453.66;5032476;28;20047;-74
2022/03/27 04:59:07;;;;;;;29.43;18.93;;;;;;;2.53;95.91;101462.97;5032400;28;20025;-73
2022/03/27 05:01:32;;;;;;;31.50;19.37;;;;;;;2.58;96.08;101451.50;5032402;28;20022;-73
2022/03/27 05:03:58;;;;;;;35.00;21.97;;;;;;;2.82;95.50;101464.53;5032429;28;20026;-73
2022/03/27 05:06:23;;;;;;;33.93;22.10;;;;;;;2.99;94.51;101467.59;5031730;28;20110;-73
2022/03/27 05:08:50;;;;;;;29.70;18.90;;;;;;;3.20;93.78;101469.41;5032279;28;20039;-74
2022/03/27 05:11:15;;;;;;;26.97;17.57;;;;;;;3.27;93.15;101469.91;5032371;28;20042;-73
2022/03/27 05:13:41;;;;;;;32.00;19.77;;;;;;;3.35;93.20;101471.41;5032234;28;20053;-73
2022/03/27 05:16:06;;;;;;;26.30;16.67;;;;;;;3.42;92.87;101462.63;5031780;28;20413;-73
2022/03/27 05:18:32;;;;;;;26.77;18.20;;;;;;;3.41;92.53;101446.41;5032280;28;20033;-73
2022/03/27 05:20:57;;;;;;;27.20;18.20;;;;;;;3.60;91.69;101476.88;5031921;28;20470;-73
2022/03/27 05:23:23;;;;;;;28.93;17.87;;;;;;;3.64;91.20;101467.78;5032066;28;20057;-74
2022/03/27 05:25:50;;;;;;;29.77;19.37;;;;;;;3.62;92.14;101474.44;5032020;28;20025;-73
2022/03/27 05:28:16;;;;;;;26.60;18.80;;;;;;;3.79;92.33;101473.25;5031598;28;20488;-73
2022/03/27 05:30:43;;;;;;;29.13;18.93;;;;;;;3.93;91.39;101474.38;5031658;28;20037;-73
2022/03/27 05:33:08;;;;;;;26.13;18.83;;;;;;;4.02;91.56;101469.97;5031962;28;20033;-74
2022/03/27 05:35:34;;;;;;;31.63;18.70;;;;;;;4.16;91.17;101477.09;5031112;28;20056;-73
2022/03/27 05:37:59;;;;;;;26.70;18.07;;;;;;;4.20;90.80;101460.34;5031687;28;20469;-74
2022/03/27 05:40:26;;;;;;;29.03;18.53;;;;;;;3.97;89.71;101390.41;5027515;28;20496;-73
2022/03/27 05:42:52;;;;;;;24.70;17.03;;;;;;;4.66;89.28;101479.25;5028180;28;20113;-74
2022/03/27 05:45:19;;;;;;;23.17;17.03;;;;;;;4.85;89.13;101484.09;5030788;28;20037;-74
2022/03/27 05:47:45;;;;;;;25.10;16.63;;;;;;;4.98;88.00;101473.09;5031054;28;20037;-74
2022/03/27 05:50:14;;;;;;;27.60;17.47;;;;;;;5.14;86.97;101471.72;5030486;28;20025;-74
2022/03/27 05:52:42;;;;;;;25.98;17.52;;;;;;;5.30;86.72;101471.22;5030784;28;20025;-73
2022/03/27 05:55:08;;;;;;;28.40;17.52;;;;;;;5.59;85.06;101480.13;5030596;28;20030;-73
2022/03/27 05:57:34;;;;;;;24.50;17.02;;;;;;;5.76;84.14;101486.50;5030306;28;20481;-73
2022/03/27 06:00:00;;;;;;;25.92;17.00;;;;;;;5.96;83.10;101491.38;5026418;28;20061;-73
2022/03/27 06:02:25;;;;;;;23.92;16.65;;;;;;;6.13;81.04;101491.72;5023106;28;20061;-74
2022/03/27 06:04:51;;;;;;;23.63;16.02;;;;;;;6.30;79.52;101485.25;5030620;28;20029;-73
2022/03/27 06:07:16;;;;;;;24.63;17.05;;;;;;;6.44;78.38;101489.69;5031024;28;20075;-73
2022/03/27 06:09:42;;;;;;;24.35;16.35;;;;;;;6.64;77.56;101483.38;5030649;28;20025;-74
2022/03/27 06:12:08;;;;;;;22.02;15.82;;;;;;;6.79;77.63;101485.19;5030554;28;20539;-74
2022/03/27 06:14:34;;;;;;;23.00;14.98;;;;;;;6.80;77.58;101487.88;5030337;28;20516;-74
2022/03/27 06:16:59;;;;;;;22.95;15.63;;;;;;;6.86;76.88;101489.97;5030379;28;20053;-74
2022/03/27 06:19:26;;;;;;;24.98;14.90;;;;;;;6.97;76.59;101465.91;5030486;28;20032;-74
2022/03/27 06:21:52;;;;;;;20.20;14.20;;;;;;;7.18;76.10;101459.53;5030564;28;20033;-75
2022/03/27 06:24:18;;;;;;;25.58;14.38;;;;;;;7.42;76.50;101501.38;5030427;28;20167;-74
2022/03/27 06:26:43;;;;;;;22.05;14.55;;;;;;;7.60;76.08;101501.69;5030376;28;20036;-73
2022/03/27 06:29:09;;;;;;;20.95;13.88;;;;;;;7.59;74.83;101458.81;5030340;28;20523;-74
2022/03/27 06:31:38;;;;;;;18.38;12.57;;;;;;;8.24;70.46;101486.94;5030121;28;20390;-75
2022/03/27 06:34:04;;;;;;;23.38;12.90;;;;;;;8.48;69.52;101493.56;5030205;28;20013;-75
2022/03/27 06:36:30;;;;;;;22.90;12.68;;;;;;;8.34;69.66;101441.22;5029750;28;20124;-73
2022/03/27 06:38:55;;;;;;;20.02;13.07;;;;;;;8.74;69.07;101501.19;5030280;28;20094;-73
2022/03/27 06:41:21;;;;;;;20.58;13.30;;;;;;;8.90;68.66;101491.84;5029612;28;20041;-73
2022/03/27 06:43:46;;;;;;;17.48;12.75;;;;;;;9.07;67.23;101503.13;5027100;28;20025;-73
2022/03/27 06:46:16;;;;;;;26.35;12.95;;;;;;;9.24;64.98;101475.78;5029858;28;20029;-74
2022/03/27 06:48:42;;;;;;;;;;;;;;;9.54;63.18;101496.41;5030188;28;20111;-73
2022/03/27 06:51:07;;;;;;;25.13;12.20;;;;;;;9.73;60.87;101480.31;5029700;28;20385;-72
2022/03/27 06:53:33;;;;;;;20.70;12.63;;;;;;;10.22;57.72;101489.00;5029994;28;20074;-73
2022/03/27 06:55:58;;;;;;;15.88;9.93;;;;;;;10.31;55.28;101492.09;5030084;28;20029;-73
2022/03/27 06:58:24;;;;;;;21.92;9.90;;;;;;;10.41;53.67;101493.53;5029658;28;20114;-73
2022/03/27 07:03:33;;;;;;;17.30;9.43;;;;;;;10.71;50.41;101478.75;5030292;28;20044;-73
2022/03/27 07:05:59;;;;;;;17.02;8.52;;;;;;;11.06;48.83;101453.84;5027974;28;20437;-73
2022/03/27 07:08:24;;;;;;;14.63;9.13;;;;;;;11.30;49.20;101468.81;5028793;28;20454;-73
2022/03/27 07:10:51;;;;;;;16.90;8.95;;;;;;;11.28;49.20;101473.06;5029610;28;20057;-73
2022/03/27 07:13:19;;;;;;;16.60;8.82;;;;;;;11.56;48.75;101472.69;5029365;28;20036;-70
2022/03/27 07:15:46;;;;;;;20.42;9.50;;;;;;;11.75;48.04;101473.59;5029828;28;20109;-73
2022/03/27 07:18:12;;;;;;;17.38;9.25;;;;;;;11.68;47.42;101448.28;5029584;28;20048;-72
2022/03/27 07:20:41;;;;;;;17.25;10.35;;;;;;;12.01;47.19;101461.94;5029314;28;20048;-73
2022/03/27 07:23:09;;;;;;;15.48;8.65;;;;;;;12.31;46.56;101451.22;5029721;28;20025;-73
2022/03/27 07:25:36;;;;;;;17.30;8.50;;;;;;;12.46;46.73;101449.34;5029561;28;20096;-73
2022/03/27 07:28:06;;;;;;;21.50;9.43;;;;;;;12.73;46.08;101448.78;5028942;28;20469;-70
2022/03/27 07:30:32;;;;;;;18.55;8.35;;;;;;;12.95;46.62;101453.19;5029476;28;20163;-72
2022/03/27 07:32:58;;;;;;;15.73;8.27;;;;;;;13.14;44.22;101429.78;5027351;28;20886;-73
2022/03/27 07:35:25;;;;;;;15.18;7.80;;;;;;;13.37;43.50;101439.44;5026742;28;20033;-72
2022/03/27 07:37:52;;;;;;;18.05;8.05;;;;;;;13.45;42.21;101425.91;5022463;28;20065;-72
2022/03/27 07:40:18;;;;;;;14.80;8.75;;;;;;;13.55;43.08;101423.72;5013428;28;20033;-72
2022/03/27 07:42:50;;;;;;;16.98;8.20;;;;;;;13.70;42.06;101426.03;5026000;28;20029;-73
2022/03/27 07:45:19;;;;;;;14.15;7.22;;;;;;;13.75;40.96;101402.88;5017495;28;20080;-73
2022/03/27 07:47:46;;;;;;;16.80;7.63;;;;;;;14.01;41.33;101426.34;5021279;28;20506;-74
2022/03/27 07:50:12;;;;;;;16.48;8.27;;;;;;;14.26;40.11;101422.97;5015114;28;20041;-75
2022/03/27 07:52:38;;;;;;;14.82;6.93;;;;;;;14.40;39.24;101415.66;5027152;28;20135;-75
2022/03/27 07:55:04;;;;;;;18.67;7.70;;;;;;;14.39;39.87;101413.91;5043502;28;20120;-74
2022/03/27 07:57:30;;;;;;;17.85;6.90;;;;;;;14.38;40.16;101384.44;5029997;28;20033;-75
2022/03/27 07:59:56;;;;;;;13.88;6.65;;;;;;;14.65;39.59;101407.06;5029958;28;20530;-74
2022/03/27 08:02:22;;;;;;;20.83;7.13;;;;;;;14.72;39.21;101414.25;5029652;28;20065;-74
2022/03/27 08:04:48;;;;;;;13.30;7.22;;;;;;;14.63;38.66;101371.44;5029606;28;20021;-71
2022/03/27 08:07:13;;;;;;;11.15;6.50;;;;;;;14.99;39.00;101403.06;5028574;28;20026;-73
2022/03/27 08:09:40;;;;;;;13.20;6.78;;;;;;;15.05;38.30;101391.94;5029345;28;20103;-73
2022/03/27 08:12:09;;;;;;;14.68;7.05;;;;;;;15.16;38.04;101403.59;5029925;28;20124;-73
2022/03/27 08:14:38;;;;;;;12.27;5.93;;;;;;;15.28;37.57;101410.06;5029719;28;20025;-74
2022/03/27 08:17:05;;;;;;;10.23;5.40;;;;;;;15.36;37.58;101413.78;5029810;28;20702;-73
2022/03/27 08:19:31;;;;;;;16.77;6.18;;;;;;;15.43;37.42;101392.34;5027397;28;20504;-73
2022/03/27 08:21:56;;;;;;;14.93;6.90;;;;;;;15.44;38.25;101378.50;5030996;28;20037;-73
2022/03/27 08:24:22;;;;;;;11.32;6.43;;;;;;;15.59;36.85;101398.00;5033142;28;20025;-73
2022/03/27 08:26:55;;;;;;;12.48;6.55;;;;;;;15.47;37.38;101369.91;5030917;28;20072;-73
2022/03/27 08:29:29;;;;;;;10.15;5.40;;;;;;;15.77;37.23;101395.97;5033314;28;20041;-73
2022/03/27 08:31:54;;;;;;;12.75;6.80;;;;;;;15.84;36.85;101397.09;5032973;28;20032;-74
2022/03/27 08:34:23;;;;;;;15.35;5.95;;;;;;;16.00;36.88;101388.91;5033061;28;20112;-74
2022/03/27 08:36:49;;;;;;;11.32;5.72;;;;;;;16.16;36.42;101391.94;5032428;28;20036;-74
2022/03/27 08:39:14;;;;;;;11.90;5.38;;;;;;;16.29;35.53;101390.59;5032992;28;20029;-73
2022/03/27 08:41:43;;;;;;;13.30;6.47;;;;;;;16.39;35.68;101386.50;5032851;28;20445;-73
2022/03/27 08:44:10;;;;;;;14.53;7.50;;;;;;;16.50;34.68;101379.88;5032636;28;20033;-73
2022/03/27 08:46:36;;;;;;;12.65;6.85;;;;;;;16.39;35.61;101374.34;5032438;28;20778;-73
2022/03/27 08:49:14;;;;;;;8.60;5.18;;;;;;;16.54;34.49;101383.44;5032630;28;20033;-73
2022/03/27 08:51:47;;;;;;;14.18;6.63;;;;;;;16.75;35.42;101380.53;5032591;28;20029;-73
2022/03/27 08:54:25;;;;;;;15.85;7.30;;;;;;;16.87;34.84;101385.16;5032723;28;20026;-74
2022/03/27 08:57:12;;;;;;;11.43;6.53;;;;;;;16.82;34.97;101362.47;5032787;28;20026;-73
2022/03/27 08:59:39;;;;;;;12.75;6.35;;;;;;;17.05;32.78;101376.97;5032478;28;20021;-73
2022/03/27 09:02:05;;;;;;;13.63;6.15;;;;;;;17.16;33.07;101364.16;5032714;28;20026;-74
2022/03/27 09:04:31;;;;;;;10.65;5.75;;;;;;;17.25;32.68;101380.94;5031276;28;20048;-73
2022/03/27 09:06:57;;;;;;;9.93;5.78;;;;;;;17.35;32.03;101378.56;5032409;28;20029;-73
2022/03/27 09:09:22;;;;;;;11.32;5.45;;;;;;;17.62;32.92;101373.09;5032762;28;20420;-73
2022/03/27 09:11:49;;;;;;;12.52;5.20;;;;;;;17.62;30.84;101373.97;5032422;28;20072;-73
2022/03/27 09:14:16;;;;;;;11.43;5.15;;;;;;;17.79;29.31;101370.84;5031975;28;20045;-75
2022/03/27 09:17:06;;;;;;;13.77;5.30;;;;;;;17.75;30.96;101375.09;5032274;28;20048;-73
2022/03/27 09:19:39;;;;;;;10.07;5.50;;;;;;;17.82;29.32;101370.91;5032280;28;20113;-73
2022/03/27 09:22:34;;;;;;;11.77;5.40;;;;;;;17.74;28.22;101330.69;5032349;28;20085;-73
2022/03/27 09:25:04;;;;;;;10.80;5.55;;;;;;;17.96;30.07;101371.25;4993237;28;20507;-74
2022/03/27 09:27:31;;;;;;;10.70;4.18;;;;;;;17.68;27.46;101330.56;5009915;28;20092;-74
2022/03/27 09:29:58;;;;;;;11.88;4.97;;;;;;;18.07;27.55;101366.25;5009764;28;20041;-74
2022/03/27 09:32:31;;;;;;;12.15;4.78;;;;;;;18.21;28.44;101356.94;4993240;28;20113;-73
2022/03/27 09:35:03;;;;;;;8.52;4.57;;;;;;;18.11;26.60;101358.47;4992647;28;20457;-74
2022/03/27 09:37:30;;;;;;;10.52;5.90;;;;;;;18.18;27.77;101348.16;5009463;28;20057;-73
2022/03/27 09:39:56;;;;;;;9.18;5.80;;;;;;;18.38;26.89;101357.28;5009473;28;20037;-73
2022/03/27 09:42:22;;;;;;;14.07;5.22;;;;;;;18.48;27.79;101365.28;5009535;28;20132;-73
2022/03/27 09:44:48;;;;;;;12.60;5.65;;;;;;;18.48;27.97;101329.56;4976591;28;20490;-73
2022/03/27 09:47:13;;;;;;;11.52;5.95;;;;;;;18.68;27.85;101336.84;5009553;28;20513;-73
2022/03/27 09:49:44;;;;;;;11.65;6.70;;;;;;;18.64;27.46;101343.81;5009313;28;20505;-73
2022/03/27 09:52:13;;;;;;;9.18;5.38;;;;;;;18.65;26.13;101336.81;5009355;28;20029;-73
2022/03/27 09:55:03;;;;;;;10.93;6.05;;;;;;;18.77;27.25;101347.50;5009084;28;20104;-73
2022/03/27 09:57:37;;;;;;;8.48;5.60;;;;;;;18.91;26.17;101326.81;5009150;28;20121;-73
2022/03/27 10:00:18;;;;;;;9.38;6.05;;;;;;;19.11;25.14;101327.16;5008778;28;20524;-73
2022/03/27 10:02:45;;;;;;;19.58;6.07;;;;;;;19.29;25.33;101323.94;5027346;28;20124;-73
2022/03/27 10:05:13;;;;;;;11.88;6.18;;;;;;;19.00;25.65;101316.50;5031173;28;20112;-73
2022/03/27 10:07:52;;;;;;;14.45;7.03;;;;;;;19.25;24.70;101295.94;5031435;28;20041;-73
2022/03/27 10:10:23;;;;;;;;;;;;;;;19.17;25.47;101308.91;5031491;28;20504;-74
2022/03/27 10:12:51;;;;;;;13.90;6.15;;;;;;;19.29;24.94;101316.09;5031347;28;19917;-73
2022/03/27 10:15:22;;;;;;;14.95;6.43;;;;;;;18.90;25.25;101278.88;5031716;28;20033;-73
2022/03/27 10:17:57;;;;;;;13.05;6.68;;;;;;;19.47;24.29;101312.84;5021542;28;20104;-73
2022/03/27 10:20:27;;;;;;;12.32;6.43;;;;;;;19.64;24.37;101305.22;5018806;28;20026;-73
2022/03/27 10:23:01;;;;;;;10.88;6.45;;;;;;;19.94;24.21;101305.56;5017603;28;20495;-74
2022/03/27 10:25:50;;;;;;;10.98;6.30;;;;;;;19.99;24.26;101309.16;5014626;28;20080;-74
2022/03/27 10:28:18;;;;;;;8.18;5.70;;;;;;;19.72;24.83;101297.44;5030288;28;20503;-73
2022/03/27 10:30:44;;;;;;;13.93;7.00;;;;;;;19.67;25.26;101270.31;5024855;28;20472;-74
2022/03/27 10:33:10;;;;;;;10.13;6.05;;;;;;;19.77;25.90;101297.50;5012580;28;20026;-74
2022/03/27 10:35:51;;;;;;;11.52;6.45;;;;;;;19.76;26.13;101307.09;5020655;28;20519;-73
2022/03/27 10:38:50;;;;;;;12.88;6.32;;;;;;;19.98;24.10;101304.78;5027912;28;20017;-74
2022/03/27 10:41:43;;;;;;;12.98;6.72;;;;;;;20.07;24.53;101304.88;5027085;28;20386;-74
2022/03/27 10:44:40;;;;;;;12.48;6.07;;;;;;;20.07;24.08;101304.88;5007357;28;20037;-73
2022/03/27 10:47:12;;;;;;;12.38;6.15;;;;;;;20.18;25.13;101287.50;4997453;28;20044;-74
2022/03/27 10:49:38;;;;;;;10.73;6.50;;;;;;;20.51;23.53;101291.34;4990962;28;20462;-73
2022/03/27 10:52:05;;;;;;;11.27;6.00;;;;;;;20.29;22.34;101295.50;4982480;28;20099;-72
2022/03/27 10:54:31;;;;;;;11.45;6.80;;;;;;;20.38;22.15;101278.09;4982539;28;20042;-73
2022/03/27 10:56:58;;;;;;;12.10;6.18;;;;;;;20.75;24.57;101281.03;4994238;28;20100;-74
2022/03/27 10:59:25;;;;;;;11.50;6.57;;;;;;;20.33;23.18;101286.78;4987369;28;20034;-73
2022/03/27 11:01:54;;;;;;;10.65;6.82;;;;;;;20.31;23.27;101296.41;4987933;28;20045;-72
2022/03/27 11:04:41;;;;;;;10.45;6.57;;;;;;;20.14;23.81;101274.38;4994799;28;20492;-75
2022/03/27 11:07:15;;;;;;;11.10;6.90;;;;;;;20.52;23.40;101268.59;5006826;28;20028;-74
2022/03/27 11:09:44;;;;;;;12.75;6.00;;;;;;;20.07;22.93;101207.00;5006980;28;20038;-76
2022/03/27 11:12:25;;;;;;;11.23;6.40;;;;;;;20.40;22.46;101276.34;5006302;28;20057;-73
2022/03/27 11:14:53;;;;;;;11.02;6.32;;;;;;;20.38;22.03;101273.72;5005427;28;20100;-74
2022/03/27 11:17:43;;;;;;;11.18;6.95;;;;;;;20.41;22.11;101268.53;5005785;28;20045;-74
2022/03/27 11:20:29;;;;;;;13.73;6.53;;;;;;;20.84;23.34;101258.38;4951950;28;20039;-75
2022/03/27 11:22:59;;;;;;;13.00;6.35;;;;;;;20.92;24.51;101250.59;4986520;28;20034;-74
2022/03/27 11:25:29;;;;;;;13.25;6.18;;;;;;;20.66;22.56;101258.22;4979613;28;20047;-73